Time;durP1;ratioP1;P1;durP2;ratioP2;P2;SDS_P1;SDS_P2;PMS_P1;PMS_P2;Temp;Humidity;BMP_temperature;BMP_pressure;BME280_temperature;BME280_humidity;BME280_pressure;Samples;Min_cycle;Max_cycle;Signal;HPM_P1;HPM_P2
2023/12/25 00:00:42;;;;;;;1.73;1.03;;;12.60;90.50;;;12.67;49.13;98353.91;4841952;29;113916;-84
2023/12/25 00:03:47;;;;;;;1.70;1.17;;;12.50;90.40;;;12.63;49.39;98356.56;4844615;29;124206;-82
2023/12/25 00:06:17;;;;;;;1.80;1.20;;;12.40;90.30;;;12.63;49.43;98367.63;4843127;29;123539;-83
2023/12/25 00:08:48;;;;;;;1.53;0.90;;;12.30;90.30;;;12.63;49.38;98348.25;4843379;29;114733;-83
2023/12/25 00:11:17;;;;;;;3.17;1.50;;;13.80;91.00;;;12.63;49.15;98362.09;4849604;29;116017;-83
2023/12/25 00:13:57;;;;;;;1.30;1.13;;;12.40;90.20;;;12.61;49.23;98347.75;4861678;28;124006;-83
2023/12/25 00:16:26;;;;;;;2.00;1.30;;;12.40;90.30;;;12.58;49.56;98354.78;4845945;29;124573;-83
2023/12/25 00:19:07;;;;;;;3.10;1.10;;;12.70;90.40;;;12.57;49.60;98357.88;4843171;29;114054;-83
2023/12/25 00:21:41;;;;;;;2.17;1.10;;;12.30;90.20;;;12.57;49.10;98346.78;4844687;29;111882;-84
2023/12/25 00:24:14;;;;;;;1.47;1.20;;;13.60;90.80;;;12.57;49.40;98355.09;4842911;29;124602;-84
2023/12/25 00:26:46;;;;;;;2.63;1.50;;;12.60;90.30;;;12.56;49.20;98350.72;4829103;29;123852;-83
2023/12/25 00:29:28;;;;;;;1.70;1.10;;;12.30;90.20;;;12.55;48.89;98346.34;4843112;29;114273;-84
2023/12/25 00:32:12;;;;;;;1.20;1.00;;;12.30;90.10;;;12.56;49.10;98364.59;4861477;29;114211;-83
2023/12/25 00:34:42;;;;;;;3.40;1.50;;;12.30;90.40;;;12.56;48.82;98362.63;4861124;29;123669;-82
2023/12/25 00:37:37;;;;;;;2.60;1.10;;;13.60;90.60;;;12.56;48.93;98361.81;4859733;29;124611;-80
2023/12/25 00:40:27;;;;;;;3.33;1.03;;;12.30;90.00;;;12.56;49.14;98356.28;4876480;29;113341;-83
2023/12/25 00:43:01;;;;;;;1.83;1.00;;;12.40;90.20;;;12.58;49.00;98353.97;4752722;29;114413;-84
2023/12/25 00:45:36;;;;;;;1.70;1.10;;;14.00;90.70;;;12.58;48.80;98376.16;4769361;29;122009;-84
2023/12/25 00:48:22;;;;;;;1.73;1.07;;;12.30;89.80;;;12.61;48.73;98375.47;4768088;29;122080;-84
2023/12/25 00:51:01;;;;;;;1.23;1.07;;;13.30;90.20;;;12.58;48.42;98381.69;4753799;29;112737;-84
2023/12/25 00:53:40;;;;;;;1.77;1.20;;;12.60;89.60;;;12.58;48.46;98381.69;4752405;29;113958;-84
2023/12/25 00:56:15;;;;;;;2.13;1.30;;;14.90;90.80;;;12.60;48.27;98391.28;4766612;29;123742;-83
2023/12/25 00:58:44;;;;;;;1.63;1.20;;;13.60;90.10;;;12.58;48.27;98353.97;4766338;29;124006;-83
2023/12/25 01:01:13;;;;;;;1.77;1.17;;;14.60;90.70;;;12.62;48.57;98373.50;4762487;29;114428;-86
2023/12/25 01:04:08;;;;;;;2.27;1.00;;;12.80;89.90;;;12.58;47.79;98359.53;4763450;29;113229;-84
2023/12/25 01:06:44;;;;;;;1.07;0.90;;;12.30;88.70;;;12.58;48.12;98363.09;4763988;29;123437;-85
2023/12/25 01:09:12;;;;;;;1.83;1.20;;;12.30;88.70;;;12.60;47.90;98371.91;4761411;29;122868;-84
2023/12/25 01:11:52;;;;;;;1.70;1.17;;;12.40;88.60;;;12.60;47.62;98373.84;4760652;29;114064;-85
2023/12/25 01:14:18;;;;;;;1.67;1.00;;;13.70;89.80;;;12.56;47.90;98370.13;4753813;29;113788;-86
2023/12/25 01:17:00;;;;;;;1.40;1.17;;;13.60;89.80;;;12.58;47.83;98362.28;4763602;29;123546;-83
2023/12/25 01:19:29;;;;;;;1.57;1.10;;;14.40;90.10;;;12.58;47.66;98365.06;4789924;29;124001;-83
2023/12/25 01:21:58;;;;;;;2.30;1.30;;;13.80;89.40;;;12.56;47.48;98359.84;4843047;29;114160;-83
2023/12/25 01:24:24;;;;;;;1.93;1.30;;;12.30;87.90;;;12.55;47.52;98349.13;4843046;29;113240;-83
2023/12/25 01:26:57;;;;;;;1.20;0.90;;;12.30;87.80;;;12.55;47.34;98360.19;4842148;29;123545;-83
2023/12/25 01:29:31;;;;;;;1.60;1.00;;;12.30;87.80;;;12.56;47.28;98345.19;4842817;29;123607;-83
2023/12/25 01:32:06;;;;;;;1.97;1.20;;;12.30;87.50;;;12.53;47.08;98329.22;4842499;29;114614;-83
2023/12/25 01:34:32;;;;;;;1.87;1.10;;;12.30;87.30;;;12.49;47.12;98340.19;4842884;29;114733;-84
2023/12/25 01:37:00;;;;;;;1.07;0.93;;;12.30;87.30;;;12.48;46.90;98333.00;4842401;29;123573;-83
2023/12/25 01:39:31;;;;;;;1.50;0.90;;;12.20;87.00;;;12.48;47.01;98332.19;4842433;29;123791;-83
2023/12/25 01:41:57;;;;;;;1.37;1.10;;;12.40;87.20;;;12.47;47.45;98328.63;4843225;29;113849;-82
2023/12/25 01:44:26;;;;;;;2.10;1.23;;;13.30;88.10;;;12.49;47.04;98345.72;4842448;29;113753;-83
2023/12/25 01:46:54;;;;;;;1.43;1.00;;;12.20;86.90;;;12.48;47.06;98346.06;4826660;29;124823;-82
2023/12/25 01:49:31;;;;;;;1.80;1.10;;;12.20;86.90;;;12.48;46.95;98359.91;4842514;29;123287;-83
2023/12/25 01:52:03;;;;;;;1.60;1.30;;;13.80;88.40;;;12.47;46.94;98350.78;4830070;29;112692;-83
2023/12/25 01:54:32;;;;;;;1.20;1.00;;;12.20;86.80;;;12.47;46.77;98347.22;4845636;29;113647;-81
2023/12/25 01:56:59;;;;;;;1.40;1.27;;;13.90;88.20;;;12.46;46.49;98340.03;4826003;29;124220;-82
2023/12/25 01:59:32;;;;;;;1.73;1.30;;;12.80;87.10;;;12.46;46.81;98351.13;4844153;28;123153;-83
2023/12/25 02:01:59;;;;;;;1.47;1.00;;;14.00;88.10;;;12.46;47.01;98351.13;4828616;29;112454;-83
2023/12/25 02:04:28;;;;;;;1.13;1.00;;;12.20;86.50;;;12.45;46.95;98366.13;4842699;28;113808;-83
2023/12/25 02:06:59;;;;;;;2.57;1.37;;;12.20;86.50;;;12.44;46.72;98364.47;4858924;29;122689;-83
2023/12/25 02:09:29;;;;;;;2.10;1.20;;;14.40;88.40;;;12.45;46.77;98355.03;4825831;29;123533;-82
2023/12/25 02:12:00;;;;;;;1.90;1.00;;;13.60;87.60;;;12.43;46.68;98374.75;4841704;29;113926;-83
2023/12/25 02:14:27;;;;;;;1.93;1.00;;;12.20;86.30;;;12.42;46.86;98362.06;4829325;28;112945;-84
2023/12/25 02:16:57;;;;;;;1.47;1.20;;;14.60;88.50;;;12.41;46.73;98387.31;4824898;29;123891;-83
2023/12/25 02:19:38;;;;;;;3.63;1.20;;;12.10;86.00;;;12.39;46.30;98359.97;4841567;29;124021;-84
2023/12/25 02:22:07;;;;;;;1.10;0.80;;;12.20;85.80;;;12.36;46.07;98352.34;4840256;29;114722;-82
2023/12/25 02:24:45;;;;;;;1.37;1.00;;;12.30;85.90;;;12.32;46.20;98357.72;4842039;29;114717;-82
2023/12/25 02:27:12;;;;;;;1.63;1.20;;;12.10;85.80;;;12.35;46.53;98367.31;4841859;29;124412;-83
2023/12/25 02:29:40;;;;;;;2.07;1.10;;;12.10;85.80;;;12.35;46.70;98356.22;4841069;29;123726;-83
2023/12/25 02:32:11;;;;;;;1.40;1.13;;;12.10;85.90;;;12.34;46.36;98372.03;4841711;29;114991;-83
2023/12/25 02:34:44;;;;;;;1.27;1.00;;;14.60;88.30;;;12.36;46.32;98364.22;4842120;29;113687;-82
2023/12/25 02:37:10;;;;;;;1.87;1.30;;;12.10;85.80;;;12.38;46.48;98370.25;4823038;29;123997;-83
2023/12/25 02:39:37;;;;;;;2.30;1.20;;;12.10;86.20;;;12.37;46.46;98367.78;4822933;29;123237;-84
2023/12/25 02:42:07;;;;;;;1.50;1.10;;;12.10;85.60;;;12.38;46.25;98384.09;4826825;29;113968;-82
2023/12/25 02:44:38;;;;;;;1.37;1.10;;;12.10;85.70;;;12.33;45.97;98351.03;4841747;29;113595;-83
2023/12/25 02:47:07;;;;;;;1.70;1.10;;;12.50;85.50;;;12.34;46.07;98354.63;4824132;29;123856;-84
2023/12/25 02:49:47;;;;;;;1.30;1.00;;;12.10;85.10;;;12.34;45.91;98377.59;4840173;29;123122;-83
2023/12/25 02:52:14;;;;;;;1.70;1.17;;;12.00;85.10;;;12.34;45.57;98365.69;4838557;29;114046;-82
2023/12/25 02:54:44;;;;;;;1.70;1.00;;;14.40;87.10;;;12.33;45.38;98356.59;4842046;29;112243;-83
2023/12/25 02:57:16;;;;;;;1.10;0.90;;;14.80;87.20;;;12.33;45.81;98353.81;4824043;29;123529;-83
2023/12/25 03:00:16;;;;;;;1.40;1.00;;;14.50;87.90;;;12.31;45.39;98356.09;4840644;29;123577;-83
2023/12/25 03:02:51;;;;;;;1.57;1.00;;;12.00;84.30;;;12.33;45.62;98345.50;4842970;29;113437;-83
2023/12/25 03:05:22;;;;;;;1.60;1.03;;;13.70;86.20;;;12.35;45.62;98354.28;4827770;29;112333;-83
2023/12/25 03:07:49;;;;;;;2.10;1.20;;;14.60;86.80;;;12.36;45.34;98341.25;4818735;29;123126;-83
2023/12/25 03:10:23;;;;;;;2.80;1.07;;;15.00;87.30;;;12.38;45.26;98339.78;4827138;29;124297;-83
2023/12/25 03:12:52;;;;;;;1.50;1.00;;;12.10;84.80;;;12.35;45.14;98318.25;4838469;29;115322;-83
2023/12/25 03:15:19;;;;;;;4.93;1.33;;;13.50;85.10;;;12.35;44.97;98332.09;4839866;28;114751;-83
2023/12/25 03:17:46;;;;;;;2.07;1.20;;;12.10;83.70;;;12.33;44.87;98311.44;4830524;29;122989;-83
2023/12/25 03:20:22;;;;;;;3.10;1.00;;;14.20;85.40;;;12.33;44.79;98326.13;4842894;29;122941;-83
2023/12/25 03:23:03;;;;;;;1.20;1.00;;;13.90;85.30;;;12.30;45.04;98323.19;4856578;29;113986;-82
2023/12/25 03:25:31;;;;;;;2.20;1.20;;;14.40;85.60;;;12.29;45.05;98305.75;4858201;29;113487;-83
2023/12/25 03:28:00;;;;;;;2.40;0.90;;;14.60;86.00;;;12.32;45.04;98318.13;4858238;29;123527;-83
2023/12/25 03:30:47;;;;;;;1.83;0.90;;;14.70;86.00;;;12.34;44.68;98324.94;4859080;29;124690;-82
2023/12/25 03:33:19;;;;;;;1.40;1.20;;;12.10;83.20;;;12.34;44.56;98338.81;4858137;29;113610;-83
2023/12/25 03:35:57;;;;;;;2.90;1.40;;;14.20;85.70;;;12.34;44.28;98341.56;4861522;29;114374;-83
2023/12/25 03:38:23;;;;;;;3.07;1.03;;;15.20;85.60;;;12.33;44.28;98325.28;4861155;28;123555;-83
2023/12/25 03:40:50;;;;;;;1.33;1.10;;;13.00;83.40;;;12.33;44.35;98334.41;4860804;29;123404;-84
2023/12/25 03:43:25;;;;;;;1.87;1.23;;;15.40;85.60;;;12.36;44.16;98341.25;4863594;29;113065;-83
2023/12/25 03:45:59;;;;;;;1.10;1.00;;;14.70;85.40;;;12.35;44.31;98323.78;4847287;29;113586;-84
2023/12/25 03:48:27;;;;;;;1.63;1.20;;;14.50;85.00;;;12.34;44.01;98324.94;4862746;29;122716;-84
2023/12/25 03:51:00;;;;;;;2.50;1.47;;;14.30;84.70;;;12.33;44.01;98320.56;4861552;29;123574;-83
2023/12/25 03:53:32;;;;;;;1.20;1.00;;;14.50;84.60;;;12.31;44.22;98316.50;4859308;29;113829;-81
2023/12/25 03:56:09;;;;;;;1.60;1.13;;;12.00;82.20;;;12.30;44.12;98325.94;4856501;29;114203;-83
2023/12/25 03:58:37;;;;;;;2.17;1.00;;;13.80;83.70;;;12.28;44.32;98318.00;4859811;29;123572;-83
2023/12/25 04:01:17;;;;;;;1.10;0.90;;;14.60;84.60;;;12.31;44.43;98330.38;4860473;29;122167;-83
2023/12/25 04:03:48;;;;;;;2.87;1.10;;;12.10;82.20;;;12.35;44.17;98337.66;4859886;29;115073;-83
2023/12/25 04:06:35;;;;;;;1.30;0.97;;;12.00;82.30;;;12.34;44.55;98341.56;4863900;29;114575;-83
2023/12/25 04:09:11;;;;;;;2.80;1.13;;;14.10;84.10;;;12.38;44.26;98322.31;4842738;29;123704;-83
2023/12/25 04:11:37;;;;;;;2.43;0.90;;;12.10;82.00;;;12.40;44.13;98344.16;4842519;29;121819;-82
2023/12/25 04:14:15;;;;;;;1.47;1.00;;;12.10;81.80;;;12.39;44.07;98340.56;4862137;29;114591;-83
2023/12/25 04:16:49;;;;;;;2.07;1.00;;;12.10;81.70;;;12.37;44.07;98349.22;4824713;29;113647;-84
2023/12/25 04:19:17;;;;;;;1.97;1.10;;;12.10;81.50;;;12.36;43.90;98336.50;4826041;29;123734;-83
2023/12/25 04:21:45;;;;;;;3.30;1.10;;;12.90;82.00;;;12.34;43.96;98344.34;4809780;29;123476;-82
2023/12/25 04:24:20;;;;;;;1.77;0.90;;;12.20;81.50;;;12.37;44.09;98360.28;4788946;29;114579;-83
2023/12/25 04:26:55;;;;;;;2.60;1.03;;;12.10;81.40;;;12.38;43.97;98352.78;4788550;29;111868;-83
2023/12/25 04:29:29;;;;;;;1.93;1.37;;;15.10;84.30;;;12.39;43.78;98368.28;4788682;29;123515;-84
2023/12/25 04:32:01;;;;;;;2.13;1.20;;;13.00;82.30;;;12.38;44.04;98373.00;4787661;29;123505;-83
2023/12/25 04:34:58;;;;;;;2.07;1.00;;;14.90;84.40;;;12.38;43.81;98378.56;4743378;29;112347;-83
2023/12/25 04:37:59;;;;;;;1.77;1.13;;;12.00;81.20;;;12.39;43.82;98362.75;4785202;29;113660;-82
2023/12/25 04:40:26;;;;;;;2.70;1.20;;;12.10;81.50;;;12.44;44.12;98367.25;4786209;29;123677;-83
2023/12/25 04:42:53;;;;;;;1.27;1.00;;;12.20;81.80;;;12.47;43.74;98369.38;4757709;29;124445;-84
2023/12/25 04:45:30;;;;;;;1.27;0.90;;;11.50;81.50;;;12.44;43.93;98370.88;4789317;29;114007;-82
2023/12/25 04:51:45;;;;;;;1.97;1.10;;;12.20;81.30;;;12.40;43.80;98371.84;4843145;29;123457;-81
2023/12/25 04:54:19;;;;;;;1.10;0.90;;;12.20;81.00;;;12.35;43.84;98368.13;4841900;29;123312;-82
2023/12/25 04:56:56;;;;;;;1.40;1.03;;;13.30;81.90;;;12.36;43.66;98352.34;4877801;29;113222;-81
2023/12/25 04:59:24;;;;;;;2.20;1.30;;;12.10;80.60;;;12.35;43.92;98347.91;4861474;29;114963;-83
2023/12/25 05:02:03;;;;;;;1.63;1.43;;;12.40;81.10;;;12.35;43.74;98351.50;4851202;29;123886;-83
2023/12/25 05:04:30;;;;;;;2.13;0.93;;;13.80;82.50;;;12.35;43.89;98353.47;4841479;29;123450;-83
2023/12/25 05:07:09;;;;;;;1.27;0.93;;;12.10;81.70;;;12.33;43.90;98362.13;4843449;29;112326;-85
2023/12/25 05:09:41;;;;;;;1.10;0.87;;;14.40;83.00;;;12.34;43.94;98344.34;4841002;29;113552;-82
2023/12/25 05:12:25;;;;;;;1.43;1.03;;;12.10;81.20;;;12.33;44.08;98341.91;4841826;28;123876;-82
2023/12/25 05:14:52;;;;;;;2.27;1.20;;;13.70;82.60;;;12.35;43.93;98351.50;4841551;29;123369;-81
2023/12/25 05:17:22;;;;;;;2.33;1.13;;;13.90;82.60;;;12.33;43.60;98353.81;4859689;29;116570;-83
2023/12/25 05:20:04;;;;;;;1.17;1.00;;;14.30;82.80;;;12.31;43.79;98331.16;4874981;29;113815;-82
2023/12/25 05:22:35;;;;;;;13.27;1.30;;;13.30;81.90;;;12.32;43.87;98341.09;4846822;29;123897;-82
2023/12/25 05:25:04;;;;;;;4.80;1.30;;;12.10;81.00;;;12.31;44.02;98339.47;4859283;29;123996;-83
2023/12/25 05:27:41;;;;;;;4.20;0.90;;;12.10;80.80;;;12.31;43.79;98333.94;4858782;29;113978;-82
2023/12/25 05:30:23;;;;;;;4.00;1.10;;;12.10;80.90;;;12.30;43.99;98332.28;4859357;29;114020;-81
2023/12/25 05:32:58;;;;;;;1.00;0.90;;;12.50;81.40;;;12.36;44.12;98344.03;4857970;29;123723;-83
2023/12/25 05:35:40;;;;;;;2.23;1.23;;;12.10;81.20;;;12.39;43.95;98337.81;4860385;29;123124;-82
2023/12/25 05:38:08;;;;;;;1.00;0.80;;;14.60;83.70;;;12.44;43.93;98348.69;4861561;29;112703;-81
2023/12/25 05:40:34;;;;;;;1.00;0.80;;;13.80;82.80;;;12.50;44.09;98346.53;4857605;29;113828;-85
2023/12/25 05:43:03;;;;;;;1.40;0.93;;;12.30;81.70;;;12.53;43.89;98340.31;4857914;29;123807;-82
2023/12/25 05:45:31;;;;;;;1.53;1.00;;;12.30;81.40;;;12.54;43.96;98341.94;4859652;29;123206;-83
2023/12/25 05:47:58;;;;;;;2.37;0.97;;;12.30;81.20;;;12.56;43.88;98336.88;4857774;29;114631;-83
2023/12/25 05:50:26;;;;;;;1.50;1.07;;;14.00;83.00;;;12.58;43.77;98346.47;4859152;29;115652;-82
2023/12/25 05:53:06;;;;;;;1.57;1.00;;;13.90;83.50;;;12.60;44.12;98352.50;4857610;29;123411;-83
2023/12/25 05:55:35;;;;;;;1.40;0.80;;;14.30;84.10;;;12.58;43.82;98354.78;4857805;29;121851;-84
2023/12/25 05:58:21;;;;;;;1.83;1.17;;;14.20;83.40;;;12.56;44.08;98351.53;4857126;29;114633;-85
2023/12/25 06:00:49;;;;;;;1.33;1.03;;;14.50;83.70;;;12.57;44.21;98358.72;4856980;29;112610;-85
2023/12/25 06:03:17;;;;;;;2.00;1.30;;;14.30;83.80;;;12.56;44.10;98356.28;4856128;29;122470;-86
2023/12/25 06:06:05;;;;;;;1.80;0.90;;;15.00;85.00;;;12.55;44.29;98357.44;4853969;29;123644;-85
2023/12/25 06:08:32;;;;;;;1.40;1.00;;;12.30;81.30;;;12.52;43.86;98360.84;4857544;29;114087;-84
2023/12/25 06:10:59;;;;;;;1.37;1.00;;;12.30;81.10;;;12.52;43.94;98360.84;4874182;29;113217;-85
2023/12/25 06:13:33;;;;;;;1.50;1.13;;;14.50;83.20;;;12.50;44.00;98377.00;4855669;29;124716;-83
2023/12/25 06:15:59;;;;;;;1.23;1.00;;;12.20;81.20;;;12.48;44.08;98371.78;4856555;29;123446;-87
2023/12/25 06:18:27;;;;;;;2.07;1.10;;;14.70;83.60;;;12.48;43.77;98371.00;4859191;29;113532;-84
2023/12/25 06:21:17;;;;;;;1.97;1.10;;;13.90;82.50;;;12.47;44.09;98369.38;4856393;29;113017;-85
2023/12/25 06:23:58;;;;;;;2.00;1.07;;;12.20;80.90;;;12.44;43.57;98370.03;4859064;29;123446;-85
2023/12/25 06:26:25;;;;;;;1.63;1.07;;;12.40;80.60;;;12.37;43.91;98354.75;4858515;29;122209;-83
2023/12/25 06:28:54;;;;;;;1.20;1.00;;;13.90;82.50;;;12.37;43.82;98365.84;4858113;29;113823;-85
2023/12/25 06:31:28;;;;;;;3.77;1.30;;;12.30;81.40;;;12.35;43.90;98384.75;4857366;29;113742;-84
2023/12/25 06:34:08;;;;;;;2.50;1.00;;;12.80;81.40;;;12.33;43.93;98375.97;4856140;29;123246;-84
2023/12/25 06:36:37;;;;;;;2.30;1.00;;;12.30;81.30;;;12.33;43.99;98375.97;4856811;29;124465;-84
2023/12/25 06:39:06;;;;;;;1.67;0.93;;;13.10;82.20;;;12.36;44.15;98388.34;4856921;29;115033;-85
2023/12/25 06:41:40;;;;;;;1.30;1.20;;;12.10;80.90;;;12.37;44.09;98392.72;4856350;29;114494;-85
2023/12/25 06:44:08;;;;;;;1.83;1.10;;;13.50;82.50;;;12.38;44.16;98388.81;4853799;29;123331;-83
2023/12/25 06:46:47;;;;;;;4.30;1.90;;;14.90;83.90;;;12.40;44.33;98391.25;4846499;29;121709;-85
2023/12/25 06:49:17;;;;;;;2.07;1.00;;;14.80;84.30;;;12.43;44.06;98390.56;4855437;29;114111;-85
2023/12/25 06:52:09;;;;;;;1.47;1.03;;;12.20;81.30;;;12.43;43.89;98401.66;4855266;29;113449;-85
2023/12/25 06:54:50;;;;;;;0.97;0.77;;;12.20;80.90;;;12.42;43.92;98391.72;4854688;29;123422;-84
2023/12/25 06:57:20;;;;;;;1.00;0.90;;;12.20;80.70;;;12.40;43.89;98392.06;4857042;29;121667;-84
2023/12/25 06:59:46;;;;;;;2.20;1.10;;;12.10;80.70;;;12.40;43.62;98402.34;4857785;29;113343;-84
2023/12/25 07:02:13;;;;;;;1.00;0.80;;;12.10;80.20;;;12.38;43.27;98400.72;4855884;29;112104;-84
2023/12/25 07:04:49;;;;;;;2.03;1.03;;;12.10;79.60;;;12.35;43.05;98397.78;4855257;29;123411;-84
2023/12/25 07:07:21;;;;;;;1.70;1.27;;;12.50;80.20;;;12.33;43.22;98394.53;4799484;29;123928;-85
2023/12/25 07:09:48;;;;;;;1.40;1.00;;;12.00;79.80;;;12.32;43.43;98396.50;4817420;29;114039;-84
2023/12/25 07:12:18;;;;;;;1.20;1.00;;;12.00;79.70;;;12.33;43.12;98389.81;4807559;29;111962;-84
2023/12/25 07:14:47;;;;;;;1.20;1.00;;;13.70;81.10;;;12.32;43.23;98404.00;4822568;29;122743;-85
2023/12/25 07:17:18;;;;;;;1.10;0.80;;;13.40;80.90;;;12.30;43.01;98411.81;4806821;29;123226;-84
2023/12/25 07:19:48;;;;;;;1.67;1.10;;;13.20;80.80;;;12.26;43.31;98408.91;4823551;29;112528;-85
2023/12/25 07:22:14;;;;;;;1.30;1.20;;;13.30;80.60;;;12.25;43.15;98410.06;4821331;29;113411;-85
2023/12/25 07:24:42;;;;;;;1.40;1.10;;;12.10;79.60;;;12.22;43.43;98410.72;4819943;29;124062;-84
2023/12/25 07:27:08;;;;;;;1.30;1.07;;;12.00;79.60;;;12.21;43.29;98416.59;4820888;29;123137;-84
2023/12/25 07:29:52;;;;;;;1.27;1.00;;;12.40;79.90;;;12.21;43.69;98411.88;4818947;29;114672;-85
2023/12/25 07:32:22;;;;;;;1.50;1.10;;;12.00;79.80;;;12.22;43.94;98413.47;4855618;29;114139;-85
2023/12/25 07:34:55;;;;;;;1.60;1.17;;;12.00;80.10;;;12.24;43.99;98408.44;4859360;29;123812;-84
2023/12/25 07:37:28;;;;;;;1.10;0.90;;;12.00;80.00;;;12.26;43.69;98420.00;4857727;29;123236;-84
2023/12/25 07:40:00;;;;;;;3.30;1.10;;;12.00;79.90;;;12.27;44.13;98420.81;4858533;29;113700;-84
2023/12/25 07:42:30;;;;;;;1.77;1.10;;;12.90;81.10;;;12.31;44.01;98435.63;4859020;29;113297;-84
2023/12/25 07:45:03;;;;;;;1.20;1.00;;;12.10;80.40;;;12.34;43.65;98449.63;4857666;29;124214;-84
2023/12/25 07:47:30;;;;;;;1.87;1.13;;;12.10;80.50;;;12.37;43.57;98448.94;4862406;29;122880;-85
2023/12/25 07:50:03;;;;;;;1.67;1.10;;;12.10;80.40;;;12.41;43.67;98453.81;4858969;29;112449;-84
2023/12/25 07:52:35;;;;;;;2.70;1.10;;;12.20;80.40;;;12.42;43.43;98461.00;4860003;29;113323;-86
2023/12/25 07:55:19;;;;;;;1.40;1.00;;;12.10;79.90;;;12.38;43.32;98461.66;4857400;29;123302;-84
2023/12/25 07:57:47;;;;;;;1.33;1.03;;;12.10;79.60;;;12.38;43.54;98458.91;4858278;29;122997;-83
2023/12/25 08:00:30;;;;;;;2.07;1.10;;;13.40;81.00;;;12.38;43.64;98461.66;4860473;29;114504;-84
2023/12/25 08:02:56;;;;;;;1.30;1.10;;;12.10;79.70;;;12.43;43.61;98462.63;4857871;29;113602;-85
2023/12/25 08:05:24;;;;;;;1.60;1.10;;;14.20;81.90;;;12.46;43.52;98461.94;4857667;29;121785;-84
2023/12/25 08:07:59;;;;;;;1.50;0.90;;;12.20;80.10;;;12.50;43.58;98457.38;4855346;29;121756;-85
2023/12/25 08:10:25;;;;;;;1.60;1.40;;;12.20;80.70;;;12.53;43.35;98451.97;4853873;29;113825;-84
2023/12/25 08:14:14;;;;;;;1.97;1.10;;;12.20;79.90;;;12.53;43.41;98470.56;4858680;29;113311;-84
2023/12/25 08:16:41;;;;;;;1.20;0.90;;;12.30;79.90;;;12.52;43.47;98468.91;4856928;29;123608;-84
2023/12/25 08:19:16;;;;;;;1.37;1.00;;;12.20;79.80;;;12.52;43.34;98480.84;4855821;29;123136;-86
2023/12/25 08:21:44;;;;;;;2.13;1.30;;;14.10;81.20;;;12.50;43.35;98480.34;4857396;29;113626;-84
2023/12/25 08:24:23;;;;;;;2.60;1.10;;;12.20;79.50;;;12.53;43.08;98484.41;4839847;29;114532;-84
2023/12/25 08:26:49;;;;;;;1.73;1.10;;;12.40;79.60;;;12.54;43.32;98480.47;4855034;29;123944;-84
2023/12/25 08:29:24;;;;;;;1.93;1.33;;;12.90;80.30;;;12.53;43.01;98479.69;4857398;29;123210;-85
2023/12/25 08:32:32;;;;;;;3.03;1.00;;;11.10;78.40;;;12.52;43.21;98491.91;4856069;29;111971;-84
2023/12/25 08:35:00;;;;;;;2.17;1.20;;;12.30;79.50;;;12.50;43.31;98502.53;4857505;29;112235;-85
2023/12/25 08:37:30;;;;;;;1.90;1.00;;;12.20;79.60;;;12.50;43.32;98507.25;4853601;29;123029;-85
2023/12/25 08:39:57;;;;;;;1.20;1.07;;;13.10;80.50;;;12.54;43.61;98499.88;4856815;29;123337;-85
2023/12/25 08:42:34;;;;;;;1.37;1.00;;;12.30;79.80;;;12.57;43.34;98519.44;4855285;29;113779;-86
2023/12/25 08:45:18;;;;;;;1.93;1.20;;;12.70;80.20;;;12.57;43.64;98515.84;4855730;29;113530;-84
2023/12/25 08:47:52;;;;;;;1.83;1.10;;;12.30;80.00;;;12.61;43.47;98530.69;4854386;29;123163;-85
2023/12/25 08:50:19;;;;;;;5.37;1.27;;;14.80;82.40;;;12.63;43.60;98522.84;4855945;29;123930;-85
2023/12/25 08:52:48;;;;;;;1.20;1.10;;;12.30;80.30;;;12.68;43.57;98528.22;4853133;29;113564;-85
2023/12/25 08:55:21;;;;;;;1.67;1.30;;;14.00;81.60;;;12.71;43.41;98516.44;4853507;29;113616;-85
2023/12/25 08:57:47;;;;;;;1.70;1.40;;;12.40;79.90;;;12.73;43.58;98511.38;4853798;29;124053;-86
2023/12/25 09:00:16;;;;;;;1.43;1.10;;;14.70;82.20;;;12.74;43.44;98509.44;4853688;29;123779;-82
2023/12/25 09:02:49;;;;;;;1.33;1.10;;;12.40;80.00;;;12.77;43.52;98503.22;4848567;29;112097;-85
2023/12/25 09:05:15;;;;;;;4.10;1.43;;;13.20;81.10;;;12.78;43.58;98502.84;4821427;29;113741;-85
2023/12/25 09:07:42;;;;;;;1.13;1.00;;;12.40;80.40;;;12.78;43.50;98513.13;4853765;29;124218;-84
2023/12/25 09:10:15;;;;;;;1.30;1.00;;;12.40;80.10;;;12.73;43.47;98516.91;4853884;29;123106;-85
2023/12/25 09:12:41;;;;;;;1.30;0.93;;;12.40;80.10;;;12.71;43.79;98524.75;4853070;29;115048;-85
2023/12/25 09:15:09;;;;;;;1.50;0.97;;;12.40;80.40;;;12.73;43.74;98518.88;4836076;29;113918;-86
2023/12/25 09:17:37;;;;;;;3.37;1.10;;;12.40;80.60;;;12.78;44.11;98521.47;4854762;29;123227;-83
2023/12/25 09:20:06;;;;;;;1.20;0.90;;;15.60;83.90;;;12.85;44.00;98526.50;4852342;29;123362;-84
2023/12/25 09:22:36;;;;;;;4.30;1.00;;;12.50;81.00;;;12.87;43.99;98535.28;4849569;29;112756;-83
2023/12/25 09:25:11;;;;;;;1.33;1.03;;;12.60;81.00;;;12.91;43.94;98533.47;4862393;29;112236;-85
2023/12/25 09:27:42;;;;;;;1.83;1.10;;;12.50;81.00;;;12.92;44.01;98533.16;4838821;29;124791;-84
2023/12/25 09:30:17;;;;;;;1.47;1.10;;;13.40;81.80;;;12.94;44.16;98539.16;4836172;29;123113;-84
2023/12/25 09:32:51;;;;;;;3.07;1.07;;;12.60;81.10;;;12.95;44.20;98551.88;4832808;29;114122;-84
2023/12/25 09:35:25;;;;;;;1.27;0.97;;;12.60;81.20;;;12.97;44.41;98548.75;4844703;29;113583;-85
2023/12/25 09:37:53;;;;;;;2.60;1.77;;;12.60;81.70;;;12.98;44.48;98553.19;4850411;29;124113;-85
2023/12/25 09:40:21;;;;;;;1.20;1.00;;;10.40;79.50;;;12.99;44.57;98552.81;4851820;29;123266;-84
2023/12/25 09:42:49;;;;;;;1.97;1.20;;;12.70;81.80;;;13.03;44.69;98544.66;4849789;29;114928;-84
2023/12/25 09:45:26;;;;;;;1.83;1.00;;;12.70;81.90;;;13.08;44.78;98544.44;4804966;29;112661;-86
2023/12/25 09:47:53;;;;;;;1.10;1.00;;;12.70;82.10;;;13.09;44.59;98546.09;4848371;29;123907;-84
2023/12/25 09:50:24;;;;;;;1.10;0.90;;;12.70;82.40;;;13.13;45.06;98546.22;4845185;29;122800;-85
2023/12/25 09:52:58;;;;;;;1.33;1.00;;;14.50;84.40;;;13.15;45.23;98539.19;4848832;29;114155;-84
2023/12/25 09:55:32;;;;;;;2.87;1.30;;;12.80;82.90;;;13.17;45.37;98550.78;4853473;29;113317;-85
2023/12/25 09:58:11;;;;;;;2.50;0.97;;;12.80;83.20;;;13.17;45.42;98559.09;4851500;29;122927;-85
2023/12/25 10:00:46;;;;;;;1.73;1.03;;;12.80;83.40;;;13.16;45.52;98548.31;4850158;29;124595;-85
2023/12/25 10:03:17;;;;;;;1.37;1.07;;;13.20;83.80;;;13.17;45.69;98545.22;4801222;29;115475;-85
2023/12/25 10:05:49;;;;;;;1.30;0.90;;;13.60;84.40;;;13.22;45.72;98552.56;4816404;29;114526;-85
2023/12/25 10:08:16;;;;;;;1.23;0.97;;;12.90;83.80;;;13.23;46.28;98543.88;4833777;29;123684;-85
2023/12/25 10:10:46;;;;;;;1.40;1.00;;;12.90;84.30;;;13.21;46.66;98525.94;4851424;29;122773;-85
2023/12/25 10:13:19;;;;;;;2.03;1.07;;;13.70;85.50;;;13.21;46.65;98526.75;4853824;29;113568;-85
2023/12/25 10:15:45;;;;;;;1.20;1.00;;;12.90;84.80;;;13.24;46.82;98519.72;4850349;29;114220;-86
2023/12/25 10:18:12;;;;;;;1.47;1.00;;;12.90;85.10;;;13.24;46.78;98512.22;4850721;29;123940;-85
2023/12/25 10:20:38;;;;;;;1.23;0.97;;;15.10;87.20;;;13.28;46.78;98503.25;4865973;29;121520;-85
2023/12/25 10:23:12;;;;;;;1.10;1.00;;;12.90;85.10;;;13.34;46.54;98511.03;4849055;29;114085;-86
2023/12/25 10:25:50;;;;;;;1.73;1.00;;;13.40;85.70;;;13.37;46.67;98513.13;4848828;29;113590;-86
2023/12/25 10:28:16;;;;;;;3.23;1.00;;;13.00;85.30;;;13.40;46.93;98512.44;4833141;29;123469;-85
2023/12/25 10:30:43;;;;;;;1.27;0.90;;;13.10;85.50;;;13.44;46.81;98512.59;4856959;29;124152;-86
2023/12/25 10:33:13;;;;;;;1.20;1.00;;;13.30;85.70;;;13.48;46.98;98510.75;4848671;29;113502;-85
2023/12/25 10:36:07;;;;;;;1.10;0.97;;;13.70;86.30;;;13.47;46.99;98511.91;4849828;29;113724;-86
2023/12/25 10:38:38;;;;;;;1.53;1.20;;;13.20;86.00;;;13.48;47.23;98505.19;4852412;29;123779;-85
2023/12/25 10:41:27;;;;;;;1.07;0.90;;;13.20;86.10;;;13.52;47.44;98500.63;4863892;29;122137;-85